Terminal Aerodrome Forecast
Issued by NWS Caribou, ME

Home | Current Version | Previous Version | Text Only | Print | Product List | Glossary On
Versions: 1 2 3 4 5 6 7 8 9 10 11 12 13 14 15 16 17
931
FTUS41 KCAR 261734
TAFCAR
TAF
KCAR 261734Z 2618/2718 30005KT P6SM FEW200
     FM262200 VRB03KT P6SM SCT200
     FM271000 13006KT P6SM OVC045
     FM271100 13006KT 6SM -SN OVC060
     FM271300 14008KT 2SM -SN OVC040=

USA.gov is the U.S. government's official web portal to all federal, state and local government web resources and services.